createdAt,value
2022-12-25T00:01:46.653Z,101310.25
2022-12-25T00:04:14.353Z,101306.06
2022-12-25T00:06:42.124Z,101313.06
2022-12-25T00:09:10.943Z,101302.66
2022-12-25T00:11:39.260Z,101306.19
2022-12-25T00:14:06.807Z,101309.75
2022-12-25T00:16:34.379Z,101304.63
2022-12-25T00:19:02.092Z,101308.16
2022-12-25T00:21:30.168Z,101303.03
2022-12-25T00:23:59.260Z,101315.16
2022-12-25T00:26:29.289Z,101317.91
2022-12-25T00:28:58.707Z,101303.28
2022-12-25T00:31:27.350Z,101315.56
2022-12-25T00:33:54.942Z,101321.75
2022-12-25T00:36:24.421Z,101327.06
2022-12-25T00:38:52.185Z,101328.94
2022-12-25T00:41:42.925Z,101320.47
2022-12-25T00:44:13.961Z,101318.81
2022-12-25T00:46:42.608Z,101325.84
2022-12-25T00:49:10.828Z,101332.88
2022-12-25T00:51:38.364Z,101330.41
2022-12-25T00:54:06.316Z,101327.03
2022-12-25T00:56:33.861Z,101328.78
2022-12-25T00:59:01.564Z,101335.72
2022-12-25T01:01:30.717Z,101344.50
2022-12-25T01:03:58.506Z,101358.44
2022-12-25T01:06:26.386Z,101364.69
2022-12-25T01:09:10.994Z,101364.88
2022-12-25T01:11:38.739Z,101368.59
2022-12-25T01:14:06.346Z,101368.88
2022-12-25T01:16:35.324Z,101361.22
2022-12-25T01:19:03.111Z,101358.75
2022-12-25T01:21:31.637Z,101355.44
2022-12-25T01:23:59.378Z,101366.72
2022-12-25T01:26:28.404Z,101369.47
2022-12-25T01:28:56.550Z,101376.56
2022-12-25T01:31:25.487Z,101381.84
2022-12-25T01:33:54.490Z,101387.09
2022-12-25T01:36:23.915Z,101386.31
2022-12-25T01:38:52.352Z,101401.13
2022-12-25T01:41:22.466Z,101402.88
2022-12-25T01:44:03.353Z,101401.34
2022-12-25T01:46:32.227Z,101412.66
2022-12-25T01:49:06.344Z,101404.97
2022-12-25T01:51:40.140Z,101414.47
2022-12-25T01:54:12.880Z,101403.41
2022-12-25T01:56:43.369Z,101404.31
2022-12-25T01:59:13.130Z,101394.84
2022-12-25T02:01:41.305Z,101400.03
2022-12-25T02:04:18.646Z,101399.25
2022-12-25T02:06:47.769Z,101416.53
2022-12-25T02:09:16.329Z,101412.28
2022-12-25T02:11:59.065Z,101419.28
2022-12-25T02:14:31.844Z,101421.06
2022-12-25T02:17:08.217Z,101424.66
2022-12-25T02:19:59.480Z,101420.41
2022-12-25T02:22:38.426Z,101425.59
2022-12-25T02:25:23.463Z,101422.22
2022-12-25T02:28:08.109Z,101431.00
2022-12-25T02:30:41.686Z,101421.56
2022-12-25T02:33:33.222Z,101419.13
2022-12-25T02:36:05.966Z,101423.59
2022-12-25T02:38:39.077Z,101428.00
2022-12-25T02:41:13.946Z,101429.75
2022-12-25T02:44:02.918Z,101443.69
2022-12-25T02:46:50.204Z,101443.75
2022-12-25T02:49:40.690Z,101439.47
2022-12-25T02:52:29.097Z,101439.50
2022-12-25T02:55:19.774Z,101439.63
2022-12-25T02:58:09.172Z,101439.81
2022-12-25T03:01:00.427Z,101446.03
2022-12-25T03:03:49.036Z,101444.53
2022-12-25T03:06:38.097Z,101437.75
2022-12-25T03:09:22.886Z,101440.50
2022-12-25T03:11:57.891Z,101433.75
2022-12-25T03:14:43.466Z,101429.41
2022-12-25T03:17:12.674Z,101436.34
2022-12-25T03:20:00.035Z,101433.75
2022-12-25T03:22:45.022Z,101429.50
2022-12-25T03:25:30.590Z,101426.03
2022-12-25T03:27:59.278Z,101432.19
2022-12-25T03:30:52.007Z,101431.31
2022-12-25T03:33:45.024Z,101445.28
2022-12-25T03:36:18.989Z,101446.16
2022-12-25T03:39:22.783Z,101454.00
2022-12-25T03:42:13.654Z,101464.44
2022-12-25T03:45:07.834Z,101455.91
2022-12-25T03:47:57.253Z,101456.91
2022-12-25T03:50:51.296Z,101460.44
2022-12-25T03:53:43.708Z,101472.59
2022-12-25T03:56:31.066Z,101462.34
2022-12-25T03:59:23.141Z,101471.00
2022-12-25T04:02:09.683Z,101463.31
2022-12-25T04:04:55.204Z,101467.72
2022-12-25T04:07:41.739Z,101487.72
2022-12-25T04:10:28.044Z,101475.72
2022-12-25T04:13:13.718Z,101479.28
2022-12-25T04:15:59.219Z,101480.19
2022-12-25T04:18:44.478Z,101486.38
2022-12-25T04:21:29.620Z,101483.00
2022-12-25T04:24:16.449Z,101485.75
2022-12-25T04:27:02.179Z,101491.94
2022-12-25T04:29:47.419Z,101489.56
2022-12-25T04:32:32.829Z,101487.97
2022-12-25T04:35:18.290Z,101484.63
2022-12-25T04:37:46.107Z,101483.88
2022-12-25T04:40:15.543Z,101484.81
2022-12-25T04:42:43.148Z,101487.44
2022-12-25T04:45:12.032Z,101499.56
2022-12-25T04:47:39.596Z,101501.28
2022-12-25T04:50:08.982Z,101504.75
2022-12-25T04:52:37.656Z,101516.84
2022-12-25T04:55:06.440Z,101520.31
2022-12-25T04:57:36.006Z,101506.59
2022-12-25T05:00:04.139Z,101504.94
2022-12-25T05:02:34.914Z,101503.28
2022-12-25T05:05:03.355Z,101499.97
2022-12-25T05:07:31.113Z,101507.81
2022-12-25T05:09:58.667Z,101506.19
2022-12-25T05:12:28.480Z,101500.25
2022-12-25T05:14:57.603Z,101502.91
2022-12-25T05:17:25.190Z,101492.63
2022-12-25T05:19:52.901Z,101481.50
2022-12-25T05:22:20.615Z,101486.69
2022-12-25T05:24:48.286Z,101488.47
2022-12-25T05:27:15.956Z,101484.22
2022-12-25T05:29:44.097Z,101481.69
2022-12-25T05:32:13.678Z,101484.31
2022-12-25T05:34:41.334Z,101479.13
2022-12-25T05:37:08.977Z,101488.63
2022-12-25T05:39:36.803Z,101484.31
2022-12-25T05:42:04.711Z,101486.97
2022-12-25T05:44:32.298Z,101491.34
2022-12-25T05:46:59.915Z,101492.25
2022-12-25T05:49:29.507Z,101494.84
2022-12-25T05:51:57.059Z,101503.41
2022-12-25T05:54:24.617Z,101493.09
2022-12-25T05:56:52.303Z,101488.75
2022-12-25T05:59:19.933Z,101494.78
2022-12-25T06:01:48.035Z,101483.59
2022-12-25T06:04:16.008Z,101475.94
2022-12-25T06:06:44.953Z,101485.47
2022-12-25T06:09:13.564Z,101476.09
2022-12-25T06:11:41.712Z,101483.84
2022-12-25T06:14:12.471Z,101472.66
2022-12-25T06:16:40.250Z,101473.59
2022-12-25T06:19:08.350Z,101471.03
2022-12-25T06:21:36.079Z,101458.16
2022-12-25T06:24:05.588Z,101459.94
2022-12-25T06:26:33.939Z,101455.69
2022-12-25T06:29:01.578Z,101461.75
2022-12-25T06:31:29.347Z,101468.66
2022-12-25T06:33:57.313Z,101478.16
2022-12-25T06:36:26.985Z,101467.00
2022-12-25T06:38:54.909Z,101488.53
2022-12-25T06:41:25.946Z,101473.94
2022-12-25T06:43:55.893Z,101475.75
2022-12-25T06:46:25.455Z,101477.53
2022-12-25T06:48:53.157Z,101486.19
2022-12-25T06:51:23.344Z,101477.72
2022-12-25T06:53:52.848Z,101472.66
2022-12-25T06:56:24.154Z,101481.25
2022-12-25T06:58:55.327Z,101481.31
2022-12-25T07:01:26.100Z,101487.31
2022-12-25T07:03:57.209Z,101487.31
2022-12-25T07:06:25.075Z,101495.06
2022-12-25T07:08:52.990Z,101512.25
2022-12-25T07:11:21.090Z,101504.56
2022-12-25T07:13:49.053Z,101507.19
2022-12-25T07:16:18.154Z,101527.00
2022-12-25T07:18:45.751Z,101519.38
2022-12-25T07:21:15.707Z,101530.69
2022-12-25T07:23:43.978Z,101521.38
2022-12-25T07:26:14.009Z,101524.19
2022-12-25T07:28:42.145Z,101537.25
2022-12-25T07:31:12.459Z,101540.00
2022-12-25T07:33:42.228Z,101539.19
2022-12-25T07:36:13.063Z,101553.00
2022-12-25T07:38:41.119Z,101549.66
2022-12-25T07:41:09.163Z,101554.81
2022-12-25T07:43:36.877Z,101543.69
2022-12-25T07:46:04.933Z,101550.59
2022-12-25T07:48:32.900Z,101537.72
2022-12-25T07:51:03.706Z,101548.03
2022-12-25T07:53:31.291Z,101543.66
2022-12-25T07:56:00.702Z,101535.88
2022-12-25T07:58:28.705Z,101538.41
2022-12-25T08:00:56.772Z,101527.16
2022-12-25T08:03:24.481Z,101521.97
2022-12-25T08:05:52.281Z,101525.44
2022-12-25T08:08:21.298Z,101534.97
2022-12-25T08:10:49.205Z,101529.81
2022-12-25T08:13:16.913Z,101536.66
2022-12-25T08:15:44.562Z,101546.97
2022-12-25T08:18:12.139Z,101550.38
2022-12-25T08:20:39.715Z,101542.53
2022-12-25T08:23:07.675Z,101550.16
2022-12-25T08:25:36.577Z,101543.22
2022-12-25T08:28:04.316Z,101544.84
2022-12-25T08:30:31.958Z,101537.81
2022-12-25T08:32:59.566Z,101542.88
2022-12-25T08:35:27.154Z,101524.69
2022-12-25T08:37:54.762Z,101521.94
2022-12-25T08:40:22.573Z,101527.88
2022-12-25T08:42:51.480Z,101532.97
2022-12-25T08:45:19.126Z,101527.66
2022-12-25T08:47:46.801Z,101527.56
2022-12-25T08:50:14.336Z,101528.38
2022-12-25T08:52:42.028Z,101513.66
2022-12-25T08:55:10.101Z,101514.41
2022-12-25T08:57:37.663Z,101500.53
2022-12-25T09:00:08.391Z,101498.78
2022-12-25T09:02:36.074Z,101500.44
2022-12-25T09:05:03.799Z,101496.16
2022-12-25T09:07:31.348Z,101484.09
2022-12-25T09:09:58.961Z,101490.03
2022-12-25T09:12:26.558Z,101494.38
2022-12-25T09:14:54.155Z,101496.84
2022-12-25T09:17:23.163Z,101490.75
2022-12-25T09:19:50.641Z,101483.84
2022-12-25T09:22:18.191Z,101483.84
2022-12-25T09:24:45.706Z,101481.25
2022-12-25T09:27:13.276Z,101480.38
2022-12-25T09:29:41.012Z,101478.66
2022-12-25T09:32:08.688Z,101476.97
2022-12-25T09:34:37.821Z,101470.03
2022-12-25T09:37:05.503Z,101474.34
2022-12-25T09:39:33.091Z,101463.97
2022-12-25T09:42:03.136Z,101458.75
2022-12-25T09:44:34.824Z,101464.72
2022-12-25T09:47:06.183Z,101480.22
2022-12-25T09:49:39.642Z,101481.84
2022-12-25T09:52:18.300Z,101480.94
2022-12-25T09:54:54.153Z,101478.25
2022-12-25T09:57:21.850Z,101478.22
2022-12-25T09:59:49.541Z,101482.44
2022-12-25T10:02:57.647Z,101477.16
2022-12-25T10:05:45.481Z,101492.47
2022-12-25T10:08:23.609Z,101496.59
2022-12-25T10:10:54.054Z,101494.78
2022-12-25T10:13:45.645Z,101492.91
2022-12-25T10:16:21.499Z,101489.28
2022-12-25T10:19:00.123Z,101489.09
2022-12-25T10:21:29.581Z,101484.72
2022-12-25T10:24:07.796Z,101491.50
2022-12-25T10:26:36.314Z,101482.78
2022-12-25T10:29:13.384Z,101489.56
2022-12-25T10:31:42.103Z,101488.66
2022-12-25T10:34:13.810Z,101466.16
2022-12-25T10:36:45.338Z,101448.91
2022-12-25T10:39:17.221Z,101446.31
2022-12-25T10:42:03.272Z,101454.88
2022-12-25T10:44:30.996Z,101443.66
2022-12-25T10:47:00.495Z,101439.22
2022-12-25T10:49:31.546Z,101452.06
2022-12-25T10:52:01.421Z,101443.22
2022-12-25T10:54:31.938Z,101449.16
2022-12-25T10:57:02.281Z,101436.16
2022-12-25T10:59:32.302Z,101448.22
2022-12-25T11:02:11.793Z,101442.88
2022-12-25T11:04:39.670Z,101437.66
2022-12-25T11:07:15.017Z,101446.22
2022-12-25T11:09:50.668Z,101440.06
2022-12-25T11:12:20.534Z,101441.00
2022-12-25T11:14:55.106Z,101434.09
2022-12-25T11:17:24.973Z,101434.94
2022-12-25T11:19:54.021Z,101438.41
2022-12-25T11:22:22.976Z,101440.94
2022-12-25T11:24:50.646Z,101446.06
2022-12-25T11:27:27.934Z,101453.75
2022-12-25T11:29:59.756Z,101450.19
2022-12-25T11:32:32.228Z,101429.38
2022-12-25T11:35:02.327Z,101435.31
2022-12-25T11:37:38.887Z,101437.88
2022-12-25T11:40:08.115Z,101443.00
2022-12-25T11:42:38.743Z,101441.28
2022-12-25T11:45:13.948Z,101437.81
2022-12-25T11:47:46.220Z,101408.50
2022-12-25T11:50:23.577Z,101398.19
2022-12-25T11:52:53.689Z,101386.13
2022-12-25T11:55:30.068Z,101374.16
2022-12-25T11:58:02.229Z,101361.38
2022-12-25T12:00:31.992Z,101341.59
2022-12-25T12:03:05.032Z,101333.00
2022-12-25T12:05:39.810Z,101334.00
2022-12-25T12:08:11.031Z,101325.53
2022-12-25T12:10:52.204Z,101329.09
2022-12-25T12:13:32.105Z,101324.88
2022-12-25T12:15:59.744Z,101341.25
2022-12-25T12:18:32.662Z,101353.38
2022-12-25T12:21:02.272Z,101348.16
2022-12-25T12:23:35.146Z,101340.38
2022-12-25T12:26:03.537Z,101346.38
2022-12-25T12:28:40.399Z,101346.31
2022-12-25T12:31:09.415Z,101337.59
2022-12-25T12:33:40.979Z,101322.91
2022-12-25T12:36:13.908Z,101321.97
2022-12-25T12:38:45.079Z,101306.31
2022-12-25T12:41:14.626Z,101304.56
2022-12-25T12:43:45.902Z,101312.22
2022-12-25T12:46:22.994Z,101319.94
2022-12-25T12:49:10.060Z,101323.38
2022-12-25T12:51:39.282Z,101334.56
2022-12-25T12:54:20.562Z,101315.50
2022-12-25T12:57:02.293Z,101305.91
2022-12-25T12:59:39.613Z,101313.63
2022-12-25T13:02:34.328Z,101305.81
2022-12-25T13:05:05.008Z,101308.34
2022-12-25T13:07:45.006Z,101316.91
2022-12-25T13:10:24.622Z,101306.50
2022-12-25T13:12:55.165Z,101315.06
2022-12-25T13:15:25.686Z,101319.28
2022-12-25T13:17:53.478Z,101323.50
2022-12-25T13:20:25.736Z,101325.13
2022-12-25T13:23:02.723Z,101314.66
2022-12-25T13:25:31.753Z,101305.06
2022-12-25T13:27:59.665Z,101300.72
2022-12-25T13:30:27.900Z,101303.22
2022-12-25T13:32:57.022Z,101300.56
2022-12-25T13:35:25.111Z,101298.78
2022-12-25T13:37:54.772Z,101293.56
2022-12-25T13:40:26.395Z,101293.50
2022-12-25T13:42:58.864Z,101289.97
2022-12-25T13:45:29.534Z,101286.50
2022-12-25T13:47:57.713Z,101283.03
2022-12-25T13:50:27.619Z,101272.69
2022-12-25T13:52:56.925Z,101267.44
2022-12-25T13:55:26.510Z,101261.38
2022-12-25T13:57:57.793Z,101252.72
2022-12-25T14:00:31.564Z,101238.78
2022-12-25T14:02:59.922Z,101241.31
2022-12-25T14:05:36.141Z,101228.34
2022-12-25T14:08:16.081Z,101228.34
2022-12-25T14:10:49.250Z,101229.19
2022-12-25T14:13:21.893Z,101230.06
2022-12-25T14:15:50.451Z,101223.94
2022-12-25T14:18:20.040Z,101225.69
2022-12-25T14:20:59.614Z,101236.00
2022-12-25T14:23:28.319Z,101245.47
2022-12-25T14:25:56.233Z,101253.19
2022-12-25T14:28:32.320Z,101256.50
2022-12-25T14:31:01.212Z,101239.13
2022-12-25T14:33:31.153Z,101249.38
2022-12-25T14:36:00.049Z,101249.22
2022-12-25T14:38:32.640Z,101249.16
2022-12-25T14:41:02.538Z,101248.16
2022-12-25T14:43:34.488Z,101245.53
2022-12-25T14:46:03.983Z,101233.34
2022-12-25T14:48:33.768Z,101225.44
2022-12-25T14:51:05.476Z,101221.13
2022-12-25T14:53:37.223Z,101205.56
2022-12-25T14:56:06.493Z,101209.00
2022-12-25T14:58:41.312Z,101213.34
2022-12-25T15:01:19.787Z,101192.66
2022-12-25T15:03:49.076Z,101175.41
2022-12-25T15:06:20.520Z,101175.47
2022-12-25T15:08:57.323Z,101181.50
2022-12-25T15:11:25.112Z,101192.66
2022-12-25T15:13:54.217Z,101182.25
2022-12-25T15:16:24.367Z,101176.19
2022-12-25T15:18:53.408Z,101177.81
2022-12-25T15:21:26.783Z,101164.69
2022-12-25T15:23:55.319Z,101145.53
2022-12-25T15:26:23.255Z,101168.75
2022-12-25T15:28:51.008Z,101176.47
2022-12-25T15:31:23.055Z,101173.84
2022-12-25T15:33:50.913Z,101176.25
2022-12-25T15:36:18.607Z,101164.94
2022-12-25T15:38:46.362Z,101167.47
2022-12-25T15:41:36.628Z,101175.19
2022-12-25T15:44:05.972Z,101177.78
2022-12-25T15:46:35.806Z,101181.22
2022-12-25T15:49:03.595Z,101168.19
2022-12-25T15:51:31.545Z,101159.50
2022-12-25T15:53:59.719Z,101153.50
2022-12-25T15:56:27.679Z,101146.47
2022-12-25T15:58:55.242Z,101150.84
2022-12-25T16:01:22.971Z,101149.91
2022-12-25T16:03:52.096Z,101144.72
2022-12-25T16:06:19.940Z,101136.94
2022-12-25T16:08:47.530Z,101140.47
2022-12-25T16:11:15.107Z,101139.59
2022-12-25T16:13:42.696Z,101149.97
2022-12-25T16:16:10.687Z,101122.31
2022-12-25T16:18:43.333Z,101109.34
2022-12-25T16:21:18.230Z,101115.34
2022-12-25T16:23:46.255Z,101105.88
2022-12-25T16:26:13.935Z,101092.91
2022-12-25T16:28:41.414Z,101115.34
2022-12-25T16:31:09.212Z,101111.88
2022-12-25T16:33:36.689Z,101103.09
2022-12-25T16:36:04.517Z,101113.41
2022-12-25T16:38:34.110Z,101106.38
2022-12-25T16:41:02.882Z,101108.84
2022-12-25T16:43:30.398Z,101096.75
2022-12-25T16:45:58.177Z,101100.03
2022-12-25T16:48:25.703Z,101091.25
2022-12-25T16:50:53.190Z,101093.72
2022-12-25T16:53:20.712Z,101080.63
2022-12-25T16:55:49.640Z,101070.25
2022-12-25T16:58:17.238Z,101062.31
2022-12-25T17:00:49.282Z,101057.91
2022-12-25T17:03:17.442Z,101055.16
2022-12-25T17:05:45.028Z,101047.25
2022-12-25T17:08:12.621Z,101034.13
2022-12-25T17:10:40.149Z,101015.84
2022-12-25T17:13:09.197Z,101007.97
2022-12-25T17:15:37.848Z,101009.56
2022-12-25T17:18:05.597Z,101009.50
2022-12-25T17:20:33.131Z,101005.06
2022-12-25T17:23:00.557Z,101001.66
2022-12-25T17:25:28.416Z,101010.97
2022-12-25T17:27:55.938Z,101000.50
2022-12-25T17:30:24.790Z,100991.81
2022-12-25T17:32:52.309Z,100996.03
2022-12-25T17:35:21.358Z,100995.94
2022-12-25T17:37:49.305Z,100983.81
2022-12-25T17:40:17.970Z,100990.59
2022-12-25T17:42:45.509Z,100983.59
2022-12-25T17:45:13.095Z,100984.44
2022-12-25T17:47:41.911Z,100992.16
2022-12-25T17:50:09.752Z,100991.22
2022-12-25T17:52:37.337Z,100980.81
2022-12-25T17:55:05.880Z,100972.28
2022-12-25T17:57:33.503Z,100972.34
2022-12-25T18:00:00.988Z,100971.44
2022-12-25T18:02:29.887Z,100957.56
2022-12-25T18:04:59.244Z,100958.41
2022-12-25T18:07:26.758Z,100938.38
2022-12-25T18:09:54.430Z,100935.78
2022-12-25T18:12:23.280Z,100926.16
2022-12-25T18:14:51.030Z,100922.75
2022-12-25T18:17:18.529Z,100919.16
2022-12-25T18:19:46.071Z,100909.59
2022-12-25T18:22:15.097Z,100907.00
2022-12-25T18:24:42.912Z,100903.59
2022-12-25T18:27:10.419Z,100907.91
2022-12-25T18:29:37.974Z,100916.72
2022-12-25T18:32:06.289Z,100920.81
2022-12-25T18:34:34.135Z,100919.84
2022-12-25T18:37:03.580Z,100918.91
2022-12-25T18:39:33.922Z,100926.63
2022-12-25T18:42:19.104Z,100914.56
2022-12-25T18:44:46.659Z,100910.38
2022-12-25T18:47:14.173Z,100912.13
2022-12-25T18:49:41.704Z,100887.94
2022-12-25T18:52:47.361Z,100880.16
2022-12-25T18:54:58.176Z,100881.81
2022-12-25T18:57:25.786Z,100872.44
2022-12-25T18:59:53.551Z,100874.09
2022-12-25T19:02:21.202Z,100868.91
2022-12-25T19:04:48.703Z,100855.09
2022-12-25T19:07:16.313Z,100832.56
2022-12-25T19:09:43.844Z,100835.06
2022-12-25T19:12:12.773Z,100835.06
2022-12-25T19:14:47.591Z,100836.84
2022-12-25T19:17:15.860Z,100828.97
2022-12-25T19:19:43.425Z,100833.22
2022-12-25T19:22:11.215Z,100834.91
2022-12-25T19:24:38.731Z,100831.41
2022-12-25T19:27:07.625Z,100803.59
2022-12-25T19:29:36.750Z,100808.81
2022-12-25T19:32:04.597Z,100806.97
2022-12-25T19:34:32.200Z,100799.25
2022-12-25T19:36:59.710Z,100797.41
2022-12-25T19:39:27.254Z,100787.88
2022-12-25T19:41:54.849Z,100780.91
2022-12-25T19:44:22.393Z,100781.75
2022-12-25T19:46:52.925Z,100775.66
2022-12-25T19:49:20.508Z,100779.94
2022-12-25T19:51:48.717Z,100774.66
2022-12-25T19:54:20.054Z,100782.53
2022-12-25T19:56:48.389Z,100776.41
2022-12-25T19:59:16.593Z,100771.19
2022-12-25T20:01:44.387Z,100765.19
2022-12-25T20:04:13.425Z,100761.69
2022-12-25T20:06:42.557Z,100767.63
2022-12-25T20:09:13.620Z,100757.22
2022-12-25T20:11:41.784Z,100757.16
2022-12-25T20:14:11.484Z,100753.63
2022-12-25T20:16:40.311Z,100759.66
2022-12-25T20:19:08.420Z,100749.94
2022-12-25T20:21:37.262Z,100748.25
2022-12-25T20:24:06.073Z,100739.56
2022-12-25T20:26:33.569Z,100749.88
2022-12-25T20:29:01.264Z,100739.47
2022-12-25T20:31:31.164Z,100742.06
2022-12-25T20:34:00.037Z,100730.75
2022-12-25T20:36:32.815Z,100735.88
2022-12-25T20:39:06.335Z,100725.41
2022-12-25T20:41:33.890Z,100720.19
2022-12-25T20:44:01.856Z,100711.50
2022-12-25T20:46:29.536Z,100727.91
2022-12-25T20:48:57.302Z,100730.34
2022-12-25T20:51:26.851Z,100716.38
2022-12-25T20:53:55.754Z,100697.25
2022-12-25T20:56:27.123Z,100709.31
2022-12-25T20:58:55.501Z,100716.94
2022-12-25T21:01:23.596Z,100709.06
2022-12-25T21:03:51.583Z,100708.06
2022-12-25T21:06:19.396Z,100702.84
2022-12-25T21:08:48.406Z,100710.47
2022-12-25T21:11:17.569Z,100693.13
2022-12-25T21:13:46.822Z,100693.91
2022-12-25T21:16:18.366Z,100687.69
2022-12-25T21:18:46.470Z,100676.28
2022-12-25T21:21:14.099Z,100672.75
2022-12-25T21:23:42.005Z,100676.13
2022-12-25T21:26:11.708Z,100673.34
2022-12-25T21:28:39.343Z,100673.25
2022-12-25T21:31:10.359Z,100675.75
2022-12-25T21:34:01.490Z,100685.25
2022-12-25T21:36:31.694Z,100679.88
2022-12-25T21:39:02.110Z,100672.00
2022-12-25T21:41:31.049Z,100677.00
2022-12-25T21:43:58.744Z,100681.28
2022-12-25T21:46:28.623Z,100666.53
2022-12-25T21:48:56.717Z,100663.72
2022-12-25T21:51:44.244Z,100658.44
2022-12-25T21:54:13.020Z,100660.03
2022-12-25T21:56:44.981Z,100662.56
2022-12-25T21:59:15.118Z,100661.66
2022-12-25T22:01:44.462Z,100654.59
2022-12-25T22:04:13.704Z,100663.31
2022-12-25T22:06:59.431Z,100674.34
2022-12-25T22:09:27.479Z,100662.13
2022-12-25T22:12:12.906Z,100661.19
2022-12-25T22:14:56.706Z,100672.44
2022-12-25T22:17:45.557Z,100668.16
2022-12-25T22:20:15.869Z,100663.63
2022-12-25T22:22:43.735Z,100666.03
2022-12-25T22:25:11.733Z,100656.47
2022-12-25T22:27:41.234Z,100665.94
2022-12-25T22:30:10.459Z,100672.72
2022-12-25T22:32:40.004Z,100668.38
2022-12-25T22:35:08.901Z,100671.72
2022-12-25T22:37:36.894Z,100655.28
2022-12-25T22:40:05.916Z,100658.72
2022-12-25T22:42:33.741Z,100645.63
2022-12-25T22:45:01.234Z,100630.84
2022-12-25T22:47:28.708Z,100635.03
2022-12-25T22:49:57.527Z,100650.81
2022-12-25T22:52:25.111Z,100641.06
2022-12-25T22:54:52.647Z,100642.75
2022-12-25T22:57:20.222Z,100630.59
2022-12-25T22:59:47.763Z,100627.97
2022-12-25T23:02:15.531Z,100632.25
2022-12-25T23:04:43.213Z,100629.56
2022-12-25T23:07:14.274Z,100624.28
2022-12-25T23:09:41.971Z,100618.97
2022-12-25T23:12:30.326Z,100617.13
2022-12-25T23:14:57.459Z,100611.75
2022-12-25T23:17:43.225Z,100603.84
2022-12-25T23:20:31.397Z,100615.00
2022-12-25T23:23:26.201Z,100598.44
2022-12-25T23:26:08.599Z,100593.06
2022-12-25T23:28:53.920Z,100604.22
2022-12-25T23:31:24.849Z,100615.38
2022-12-25T23:33:52.468Z,100605.78
2022-12-25T23:36:19.972Z,100600.50
2022-12-25T23:38:48.902Z,100616.84
2022-12-25T23:41:16.428Z,100609.03
2022-12-25T23:43:43.947Z,100605.44
2022-12-25T23:46:11.682Z,100590.66
2022-12-25T23:48:39.393Z,100589.63
2022-12-25T23:51:08.798Z,100601.59
2022-12-25T23:53:36.923Z,100590.28
2022-12-25T23:56:06.656Z,100604.03
2022-12-25T23:58:34.303Z,100610.81
